• Join FlightAware (Why Join?)
  • Login
  • US Flag 
12:53AM EDT


 

Airport Tracker/Info


-or-


 

Live Flight TrackerFlight Track Log ✈ N53FJ ✈ 09-Apr-2013 ✈ KMAF - KDAL

Flight Track Log - Related Links

Times and Time Zones

All times are in EDT time to prevent confusion due to time zone crossing. See the N53FJ flight status page for this flight to view local times or setup timezone preferences in your user account.

Time Position Orientation Groundspeed Altitude Reporting Facility
EDT Latitude Longitude Course Direction KTS MPH feet Rate Location/Type
02:02PM 31.8839 -102.0933 79° East 229 264 9,800  Level Fort Worth Center
02:03PM 31.9089 -101.9847 75° East 273 314 12,600 2,880 Climbing Fort Worth Center
02:04PM 31.9300 -101.8558 79° East 344 396 15,600 3,000 Climbing Fort Worth Center
02:05PM 31.9511 -101.7297 79° East 373 429 18,700 2,940 Climbing Fort Worth Center
02:06PM 31.9706 -101.5936 80° East 400 460 21,500 2,580 Climbing Fort Worth Center
02:07PM 31.9939 -101.4500 79° East 427 491 23,900 1,740 Climbing Fort Worth Center
02:08PM 32.0153 -101.3017 80° East 449 517 25,000 540 Climbing Fort Worth Center
02:09PM 32.0361 -101.1628 80° East 443 510 25,000  Level Fort Worth Center
02:10PM 32.0564 -101.0461 78° East 443 510 25,000  Level Fort Worth Center
02:11PM 32.0786 -100.8508 82° East 474 545 25,000  Level Fort Worth Center
02:12PM 32.0872 -100.6794 87° East 504 580 25,000  Level Fort Worth Center
02:13PM 32.0917 -100.5103 88° East 517 595 25,000  Level Fort Worth Center
02:14PM 32.0978 -100.3439 87° East 512 589 25,000  Level Fort Worth Center
02:15PM 32.1036 -100.1772 88° East 512 589 25,000  Level Fort Worth Center
02:16PM 32.1067 -100.0253 89° East 512 589 25,000  Level Fort Worth Center
02:17PM 32.1122 -99.8611 88° East 512 589 25,000  Level Fort Worth Center
02:18PM 32.1175 -99.6944 88° East 507 583 25,000  Level Fort Worth Center
02:19PM 32.1203 -99.5303 89° East 507 583 25,000  Level Fort Worth Center
02:20PM 32.1272 -99.3661 87° East 507 583 25,000  Level Fort Worth Center
02:21PM 32.1297 -99.1994 89° East 502 578 25,000  Level Fort Worth Center
02:22PM 32.1361 -99.0350 87° East 497 572 25,000  Level Fort Worth Center
02:23PM 32.1381 -98.8708 89° East 497 572 25,000 -600 Level Fort Worth Center
02:24PM 32.1503 -98.7139 85° East 492 566 23,800 -1,500 Descending Fort Worth Center
02:25PM 32.1642 -98.5669 84° East 472 543 22,000 -1,800 Descending Fort Worth Center
02:26PM 32.1842 -98.4125 81° East 448 516 20,200 -1,800 Descending Fort Worth Center
02:27PM 32.1978 -98.2728 83° East 434 499 18,500 -1,680 Descending Fort Worth Center
02:28PM 32.2111 -98.1403 83° East 412 474 16,900 -1,680 Descending Fort Worth Center
02:29PM 32.2244 -98.0125 83° East 399 459 15,200 -1,560 Descending Fort Worth Center
02:30PM 32.2394 -97.8875 82° East 399 459 13,800 -1,560 Descending Fort Worth Center
02:31PM 32.2525 -97.7622 83° East 387 445 12,100 -1,500 Descending Fort Worth Center
02:32PM 32.2633 -97.6517 83° East 355 409 10,900 -1,560 Descending Fort Worth Center
02:33PM 32.2925 -97.5558 70° East 310 357 9,000 -1,920 Descending Fort Worth Center
02:34PM 32.3364 -97.4675 60° Northeast 305 351 7,100 -1,980 Descending Fort Worth Center
02:35PM 32.3678 -97.3739 68° East 305 351 5,100 -1,080 Descending Fort Worth Center
02:36PM 32.3844 -97.2806 78° East 293 337 5,000 -360 Descending Fort Worth Center
02:37PM 32.3989 -97.1944 79° East 293 337 4,400 -540 Descending Fort Worth Center
02:38PM 32.4175 -97.0983 77° East 281 323 4,000 -240 Descending Fort Worth Center
02:39PM 32.4297 -97.0172 80° East 276 318 4,000  Level Fort Worth Center
02:40PM 32.4461 -96.9186 79° East 276 318 4,000  Level Fort Worth Center
02:41PM 32.4772 -96.8322 67° East 276 318 4,000  Level Fort Worth Center
02:42PM 32.5039 -96.7458 70° East 282 325 4,000  Level Fort Worth Center
02:43PM 32.5578 -96.6764 47° Northeast 282 325 4,000  Level Fort Worth Center
02:44PM 32.6178 -96.6094 43° Northeast 287 330 4,000  Level Fort Worth Center
02:45PM 32.6781 -96.5469 41° Northeast 293 337 4,100  Climbing Fort Worth Center
02:47PM 32.7833 -96.5500 359° North 289 333 4,000 -60 Descending Dallas / Fort Worth TRACON
02:48PM 32.8333 -96.6167 312° West 275 316 4,000 -480 Level Dallas / Fort Worth TRACON
02:49PM 32.8833 -96.6833 312° West 249 287 3,100 -900 Descending Dallas / Fort Worth TRACON